Time;durP1;ratioP1;P1;durP2;ratioP2;P2;SDS_P1;SDS_P2;PMS_P1;PMS_P2;Temp;Humidity;BMP_temperature;BMP_pressure;BME280_temperature;BME280_humidity;BME280_pressure;Samples;Min_cycle;Max_cycle;Signal;HPM_P1;HPM_P2
2022/01/13 00:00:00;;;;;;;0.82;0.82;;;1.70;99.90;;;;;;5014909;28;20381;-77
2022/01/13 00:02:31;;;;;;;1.17;0.60;;;1.70;99.90;;;;;;5014974;28;20033;-73
2022/01/13 00:04:57;;;;;;;0.95;0.95;;;1.70;99.90;;;;;;5015193;28;20022;-73
2022/01/13 00:07:22;;;;;;;0.35;0.35;;;1.70;99.90;;;;;;5014836;28;20037;-77
2022/01/13 00:09:48;;;;;;;0.10;0.10;;;1.70;99.90;;;;;;5014681;28;20104;-77
2022/01/13 00:12:17;;;;;;;0.73;0.73;;;1.70;99.90;;;;;;5015174;28;20103;-77
2022/01/13 00:15:07;;;;;;;0.30;0.30;;;1.70;99.90;;;;;;5014599;28;20026;-73
2022/01/13 00:17:58;;;;;;;0.35;0.35;;;1.70;99.90;;;;;;5014058;28;20593;-77
2022/01/13 00:25:36;;;;;;;4.20;0.88;;;1.70;99.90;;;;;;5023299;28;20117;-77
2022/01/13 00:28:07;;;;;;;0.10;0.10;;;1.70;99.90;;;;;;5014899;28;20028;-73
2022/01/13 00:30:33;;;;;;;0.43;0.43;;;1.60;99.90;;;;;;5014391;28;20038;-73
2022/01/13 00:33:01;;;;;;;0.20;0.20;;;1.60;99.90;;;;;;5014423;28;20065;-73
2022/01/13 00:35:27;;;;;;;1.23;1.13;;;1.60;99.90;;;;;;5014598;28;20025;-77
2022/01/13 00:37:52;;;;;;;0.22;0.22;;;1.60;99.90;;;;;;5014113;28;20030;-77
2022/01/13 00:40:18;;;;;;;0.40;0.40;;;1.60;99.90;;;;;;5013800;28;20473;-73
2022/01/13 00:42:43;;;;;;;0.52;0.52;;;1.70;99.90;;;;;;5014392;28;20045;-73
2022/01/13 00:45:14;;;;;;;0.35;0.35;;;1.70;99.90;;;;;;5014149;28;20018;-77
2022/01/13 00:47:40;;;;;;;2.60;1.20;;;1.70;99.90;;;;;;5013921;28;20030;-77
2022/01/13 00:50:07;;;;;;;4.03;0.93;;;1.70;99.90;;;;;;5013420;28;20101;-77
2022/01/13 00:52:32;;;;;;;1.17;1.08;;;1.60;99.90;;;;;;5013579;28;20038;-77
2022/01/13 00:55:01;;;;;;;0.75;0.75;;;1.60;99.90;;;;;;5014169;28;20018;-73
2022/01/13 00:57:28;;;;;;;1.13;1.02;;;1.60;99.90;;;;;;5014254;28;20026;-73
2022/01/13 00:59:54;;;;;;;3.10;1.08;;;1.60;99.90;;;;;;5013859;28;20083;-77
2022/01/13 01:02:20;;;;;;;0.93;0.90;;;1.60;99.90;;;;;;5013920;28;20033;-76
2022/01/13 01:04:45;;;;;;;0.73;0.73;;;1.60;99.90;;;;;;5014102;28;20038;-77
2022/01/13 01:07:11;;;;;;;0.90;0.90;;;1.60;99.90;;;;;;5013549;28;20473;-73
2022/01/13 01:09:47;;;;;;;1.65;1.58;;;1.60;99.90;;;;;;5013704;28;20029;-74
2022/01/13 01:12:14;;;;;;;0.40;0.40;;;1.60;99.90;;;;;;5013154;28;20025;-77
2022/01/13 01:14:46;;;;;;;0.17;0.17;;;1.60;99.90;;;;;;5013773;28;20129;-77
2022/01/13 01:17:15;;;;;;;2.25;0.65;;;1.60;99.90;;;;;;5013573;28;20031;-77
2022/01/13 01:19:43;;;;;;;0.45;0.45;;;1.50;99.90;;;;;;5013560;28;20018;-74
2022/01/13 01:27:26;;;;;;;1.10;1.10;;;1.50;99.90;;;;;;5013243;28;20041;-77
2022/01/13 01:29:57;;;;;;;1.27;0.43;;;1.50;99.90;;;;;;5013354;28;20066;-77
2022/01/13 01:32:23;;;;;;;0.40;0.40;;;1.50;99.90;;;;;;5013524;28;20025;-77
2022/01/13 01:34:56;;;;;;;1.23;1.15;;;1.50;99.90;;;;;;5013333;28;20022;-74
2022/01/13 01:37:26;;;;;;;0.20;0.20;;;1.50;99.90;;;;;;5013126;28;20485;-73
2022/01/13 01:39:54;;;;;;;0.50;0.50;;;1.50;99.90;;;;;;5002188;28;20026;-77
2022/01/13 01:42:21;;;;;;;0.20;0.20;;;1.50;99.90;;;;;;4993817;28;20038;-77
2022/01/13 01:44:51;;;;;;;0.52;0.52;;;1.50;99.90;;;;;;4998706;28;20080;-73
2022/01/13 01:47:19;;;;;;;1.00;1.00;;;1.50;99.90;;;;;;5013039;28;20038;-73
2022/01/13 01:49:52;;;;;;;0.85;0.85;;;1.50;99.90;;;;;;5011122;28;20110;-77
2022/01/13 01:52:18;;;;;;;2.35;0.82;;;1.50;99.90;;;;;;5012831;28;20037;-73
2022/01/13 01:54:45;;;;;;;1.67;1.58;;;1.50;99.90;;;;;;5012984;28;20059;-77
2022/01/13 01:57:11;;;;;;;1.98;1.88;;;1.50;99.90;;;;;;5013115;28;20033;-77
2022/01/13 01:59:40;;;;;;;0.98;0.95;;;1.50;99.90;;;;;;5013011;28;20029;-73
2022/01/13 02:02:07;;;;;;;0.45;0.45;;;1.50;99.90;;;;;;5012958;28;20358;-73
2022/01/13 02:04:35;;;;;;;3.05;1.85;;;1.50;99.90;;;;;;5013153;28;20021;-77
2022/01/13 02:07:03;;;;;;;0.45;0.45;;;1.50;99.90;;;;;;5012615;28;20025;-77
2022/01/13 02:09:30;;;;;;;0.55;0.55;;;1.50;99.90;;;;;;5012916;28;20028;-77
2022/01/13 02:12:00;;;;;;;0.77;0.77;;;1.50;99.90;;;;;;5012985;28;20439;-73
2022/01/13 02:16:52;;;;;;;2.00;1.85;;;1.50;99.90;;;;;;5013069;28;20026;-73
2022/01/13 02:19:19;;;;;;;2.30;1.75;;;1.50;99.90;;;;;;5013095;28;20091;-77
2022/01/13 02:21:45;;;;;;;1.17;1.17;;;1.60;99.90;;;;;;5014187;28;20525;-77
2022/01/13 02:24:11;;;;;;;1.02;1.02;;;1.60;99.90;;;;;;5013436;28;20029;-73
2022/01/13 02:26:37;;;;;;;0.75;0.75;;;1.60;99.90;;;;;;5013595;28;20026;-73
2022/01/13 02:29:03;;;;;;;1.15;0.88;;;1.60;99.90;;;;;;5013314;28;20037;-77
2022/01/13 02:31:30;;;;;;;0.65;0.65;;;1.60;99.90;;;;;;5013055;28;20045;-77
2022/01/13 02:33:56;;;;;;;1.85;0.98;;;1.60;99.90;;;;;;5013077;28;20022;-76
2022/01/13 02:36:23;;;;;;;0.82;0.82;;;1.50;99.90;;;;;;5016290;28;20030;-77
2022/01/13 02:38:50;;;;;;;0.60;0.60;;;1.60;99.90;;;;;;5012366;28;20045;-73
2022/01/13 02:41:16;;;;;;;1.08;1.00;;;1.60;99.90;;;;;;4997155;28;20508;-73
2022/01/13 02:43:44;;;;;;;1.08;1.08;;;1.60;99.90;;;;;;5012686;28;20038;-73
2022/01/13 02:46:54;;;;;;;0.43;0.43;;;1.60;99.90;;;;;;5013223;28;20041;-73
2022/01/13 02:49:21;;;;;;;0.90;0.90;;;1.60;99.90;;;;;;5016195;28;20496;-77
2022/01/13 02:51:48;;;;;;;1.55;0.95;;;1.60;99.90;;;;;;5016111;28;20033;-73
2022/01/13 02:54:14;;;;;;;2.92;1.00;;;1.60;99.90;;;;;;5016272;28;20052;-77
2022/01/13 02:56:42;;;;;;;0.65;0.65;;;1.60;99.90;;;;;;5016626;28;20049;-77
2022/01/13 02:59:08;;;;;;;0.77;0.77;;;1.60;99.90;;;;;;5016536;28;20480;-77
2022/01/13 03:01:34;;;;;;;0.75;0.70;;;1.60;99.90;;;;;;5016304;28;20052;-77
2022/01/13 03:04:05;;;;;;;0.63;0.60;;;1.50;99.90;;;;;;5015991;28;20092;-77
2022/01/13 03:06:34;;;;;;;0.47;0.25;;;1.50;99.90;;;;;;5016065;28;20110;-73
2022/01/13 03:09:01;;;;;;;1.65;1.52;;;1.50;99.90;;;;;;5016071;28;20032;-77
2022/01/13 03:11:33;;;;;;;0.80;0.80;;;1.50;99.90;;;;;;5015987;28;20421;-73
2022/01/13 03:13:59;;;;;;;1.45;1.10;;;1.50;99.90;;;;;;5014810;28;20030;-77
2022/01/13 03:16:25;;;;;;;1.02;1.02;;;1.50;99.90;;;;;;5015930;28;20033;-77
2022/01/13 03:18:51;;;;;;;0.52;0.52;;;1.50;99.90;;;;;;5014391;28;20041;-73
2022/01/13 03:21:17;;;;;;;1.30;1.20;;;1.40;99.90;;;;;;5015838;28;20034;-77
2022/01/13 03:23:43;;;;;;;1.38;1.02;;;1.40;99.90;;;;;;5015699;28;20604;-77
2022/01/13 03:26:09;;;;;;;2.72;1.77;;;1.40;99.90;;;;;;5015787;28;20014;-77
2022/01/13 03:28:51;;;;;;;1.85;1.25;;;1.30;99.90;;;;;;5015769;28;20053;-77
2022/01/13 03:31:18;;;;;;;1.30;1.30;;;1.30;99.90;;;;;;5015349;28;20096;-73
2022/01/13 03:33:45;;;;;;;0.73;0.73;;;1.30;99.90;;;;;;5013573;28;20029;-77
2022/01/13 03:36:11;;;;;;;6.65;1.33;;;1.20;99.90;;;;;;5013993;28;20397;-77
2022/01/13 03:38:36;;;;;;;1.23;1.15;;;1.20;99.90;;;;;;5015358;28;20030;-77
2022/01/13 03:41:03;;;;;;;7.03;1.45;;;1.20;99.90;;;;;;5015584;28;20030;-77
2022/01/13 03:43:29;;;;;;;0.38;0.38;;;1.10;99.90;;;;;;5015575;28;20026;-73
2022/01/13 03:45:55;;;;;;;2.45;2.25;;;1.20;99.90;;;;;;5015064;28;20022;-73
2022/01/13 03:48:21;;;;;;;0.90;0.80;;;1.10;99.90;;;;;;5014928;28;20104;-77
2022/01/13 03:50:47;;;;;;;2.88;0.90;;;1.20;99.90;;;;;;5014536;28;20077;-77
2022/01/13 03:53:28;;;;;;;1.40;1.13;;;1.10;99.90;;;;;;5014958;28;20437;-77
2022/01/13 03:56:02;;;;;;;2.83;1.00;;;1.10;99.90;;;;;;5015301;28;20477;-77
2022/01/13 03:59:14;;;;;;;1.75;1.60;;;1.10;99.90;;;;;;5014104;28;20031;-73
2022/01/13 04:01:42;;;;;;;1.40;1.17;;;1.10;99.90;;;;;;5015041;28;20030;-77
2022/01/13 04:04:08;;;;;;;1.80;1.70;;;1.10;99.90;;;;;;5015117;28;20037;-73
2022/01/13 04:06:38;;;;;;;1.95;1.17;;;1.10;99.90;;;;;;5014999;28;20026;-77
2022/01/13 04:09:19;;;;;;;1.13;0.57;;;1.10;99.90;;;;;;5015125;28;20440;-73
2022/01/13 04:11:45;;;;;;;1.17;1.08;;;1.00;99.90;;;;;;5014901;28;20022;-73
2022/01/13 04:14:10;;;;;;;1.88;1.77;;;1.10;99.90;;;;;;5014996;28;20377;-77
2022/01/13 04:16:37;;;;;;;1.80;0.60;;;1.10;99.90;;;;;;5014557;28;20489;-77
2022/01/13 04:19:05;;;;;;;0.88;0.88;;;1.10;99.90;;;;;;5014608;28;20125;-77
2022/01/13 04:21:36;;;;;;;1.05;1.05;;;1.10;99.90;;;;;;5014770;28;20040;-77
2022/01/13 04:24:11;;;;;;;0.73;0.73;;;1.10;99.90;;;;;;5014555;28;20038;-73
2022/01/13 04:26:38;;;;;;;0.30;0.30;;;1.10;99.90;;;;;;5014783;28;20556;-73
2022/01/13 04:29:19;;;;;;;18.38;2.58;;;1.10;99.90;;;;;;5014743;28;20062;-77
2022/01/13 04:31:47;;;;;;;6.05;0.88;;;1.10;99.90;;;;;;5014429;28;20084;-77
2022/01/13 04:34:13;;;;;;;0.82;0.82;;;1.00;99.90;;;;;;5013776;28;20021;-77
2022/01/13 04:36:39;;;;;;;1.88;1.20;;;1.10;99.90;;;;;;5014488;28;20033;-73
2022/01/13 04:39:06;;;;;;;1.67;1.38;;;1.10;99.90;;;;;;5014371;28;20052;-73
2022/01/13 04:41:35;;;;;;;0.40;0.40;;;1.00;99.90;;;;;;5014359;28;20405;-77
2022/01/13 04:44:05;;;;;;;1.40;1.33;;;1.10;99.90;;;;;;5014352;28;20026;-77
2022/01/13 04:46:30;;;;;;;0.55;0.55;;;1.00;99.90;;;;;;5013873;28;20034;-77
2022/01/13 04:48:56;;;;;;;0.82;0.82;;;1.10;99.90;;;;;;5012763;28;20037;-78
2022/01/13 04:51:21;;;;;;;1.45;1.02;;;1.10;99.90;;;;;;5013274;28;20026;-77
2022/01/13 04:53:47;;;;;;;0.63;0.63;;;1.10;99.90;;;;;;5013923;28;20120;-76
2022/01/13 04:56:26;;;;;;;0.75;0.65;;;1.10;99.90;;;;;;5014232;28;20032;-77
2022/01/13 04:58:52;;;;;;;0.75;0.75;;;1.10;99.90;;;;;;5014037;28;20026;-76
2022/01/13 05:01:17;;;;;;;1.95;1.40;;;1.10;99.90;;;;;;5013148;28;20068;-77
2022/01/13 05:03:43;;;;;;;0.35;0.35;;;1.10;99.90;;;;;;5013969;28;20029;-73
2022/01/13 05:06:09;;;;;;;0.20;0.20;;;1.10;99.90;;;;;;5013766;28;20445;-77
2022/01/13 05:08:35;;;;;;;1.92;1.75;;;1.10;99.90;;;;;;5013793;28;20038;-73
2022/01/13 05:11:00;;;;;;;0.88;0.88;;;1.10;99.90;;;;;;5013842;28;20022;-73
2022/01/13 05:13:26;;;;;;;0.57;0.50;;;1.10;99.90;;;;;;5013776;28;20053;-76
2022/01/13 05:15:54;;;;;;;0.85;0.85;;;1.10;99.90;;;;;;5013509;28;20018;-73
2022/01/13 05:20:49;;;;;;;0.32;0.32;;;1.10;99.90;;;;;;5014022;28;20043;-73
2022/01/13 05:23:15;;;;;;;0.55;0.55;;;1.10;99.90;;;;;;5013527;28;20025;-77
2022/01/13 05:25:42;;;;;;;2.33;2.13;;;1.10;99.90;;;;;;5013603;28;20500;-77
2022/01/13 05:28:08;;;;;;;2.72;1.60;;;1.00;99.90;;;;;;5013778;28;20105;-77
2022/01/13 05:30:34;;;;;;;0.55;0.55;;;1.00;99.90;;;;;;5013408;28;20475;-73
2022/01/13 05:33:00;;;;;;;0.17;0.17;;;1.10;99.90;;;;;;5013536;28;20022;-77
2022/01/13 05:35:27;;;;;;;0.28;0.28;;;1.10;99.90;;;;;;5013279;28;20022;-73
2022/01/13 05:37:53;;;;;;;0.52;0.52;;;1.10;99.90;;;;;;5013260;28;20053;-77
2022/01/13 05:40:18;;;;;;;0.47;0.47;;;1.10;99.90;;;;;;5008354;28;20022;-73
2022/01/13 05:42:44;;;;;;;0.60;0.50;;;1.10;99.90;;;;;;4993371;28;20405;-73
2022/01/13 05:45:16;;;;;;;0.60;0.60;;;1.00;99.90;;;;;;5001679;28;20026;-73
2022/01/13 05:47:47;;;;;;;1.70;1.58;;;1.10;99.90;;;;;;5011650;28;20030;-76
2022/01/13 05:50:15;;;;;;;0.95;0.90;;;1.00;99.90;;;;;;5013217;28;20435;-72
2022/01/13 05:52:41;;;;;;;0.90;0.90;;;1.00;99.90;;;;;;5011875;28;20370;-77
2022/01/13 05:55:08;;;;;;;0.50;0.50;;;1.00;99.90;;;;;;5011947;28;20033;-72
2022/01/13 05:57:33;;;;;;;0.10;0.10;;;1.00;99.90;;;;;;5011837;28;20048;-77
2022/01/13 05:59:59;;;;;;;0.20;0.20;;;1.00;99.90;;;;;;5012687;28;20493;-77
2022/01/13 06:02:25;;;;;;;0.50;0.50;;;1.10;99.90;;;;;;5010747;28;20026;-73
2022/01/13 06:04:50;;;;;;;1.17;0.63;;;1.10;99.90;;;;;;5012937;28;20029;-77
2022/01/13 06:07:17;;;;;;;0.93;0.90;;;1.10;99.90;;;;;;5012603;28;20029;-76
2022/01/13 06:09:43;;;;;;;2.85;0.50;;;1.10;99.90;;;;;;5011130;28;20109;-73
2022/01/13 06:12:09;;;;;;;1.00;1.00;;;1.20;99.90;;;;;;5012634;28;20484;-73
2022/01/13 06:14:35;;;;;;;0.00;0.00;;;1.10;99.90;;;;;;5012789;28;20017;-77
2022/01/13 06:17:01;;;;;;;0.52;0.52;;;1.10;99.90;;;;;;5012701;28;20366;-77
2022/01/13 06:19:27;;;;;;;4.03;3.38;;;1.10;99.90;;;;;;5012641;28;20030;-73
2022/01/13 06:21:52;;;;;;;1.58;1.48;;;1.10;99.90;;;;;;5012309;28;20594;-73
2022/01/13 06:24:18;;;;;;;1.63;1.52;;;1.10;99.90;;;;;;5012644;28;20030;-77
2022/01/13 06:26:44;;;;;;;0.57;0.57;;;1.20;99.90;;;;;;5012585;28;20485;-73
2022/01/13 06:29:09;;;;;;;0.50;0.50;;;1.10;99.90;;;;;;5012560;28;20091;-76
2022/01/13 06:31:35;;;;;;;1.27;1.23;;;1.20;99.90;;;;;;5012573;28;20113;-77
2022/01/13 06:34:01;;;;;;;1.00;1.00;;;1.20;99.90;;;;;;5012556;28;20026;-74
2022/01/13 06:36:26;;;;;;;0.57;0.57;;;1.20;99.90;;;;;;5012319;28;20026;-73
2022/01/13 06:38:52;;;;;;;0.50;0.50;;;1.20;99.90;;;;;;5012600;28;20030;-73
2022/01/13 06:41:18;;;;;;;0.40;0.40;;;1.20;99.90;;;;;;5012402;28;20041;-78
2022/01/13 06:43:44;;;;;;;2.15;1.95;;;1.20;99.90;;;;;;5008598;28;20025;-73
2022/01/13 06:46:17;;;;;;;1.08;0.90;;;1.20;99.90;;;;;;5011906;28;20567;-73
2022/01/13 06:48:43;;;;;;;0.35;0.35;;;1.10;99.90;;;;;;5012271;28;20497;-74
2022/01/13 06:51:09;;;;;;;3.15;1.05;;;1.10;99.90;;;;;;5011614;28;20026;-77
2022/01/13 06:53:35;;;;;;;0.38;0.38;;;1.10;99.90;;;;;;5010957;28;20025;-77
2022/01/13 06:56:00;;;;;;;1.50;1.42;;;1.10;99.90;;;;;;5012168;28;20030;-77
2022/01/13 06:58:27;;;;;;;1.13;1.10;;;1.10;99.90;;;;;;5011630;28;20477;-74
2022/01/13 07:00:53;;;;;;;0.70;0.70;;;1.10;99.90;;;;;;5012417;28;20022;-74
2022/01/13 07:03:20;;;;;;;5.05;2.03;;;1.10;99.90;;;;;;5011974;28;20025;-77
2022/01/13 07:05:46;;;;;;;1.00;1.00;;;1.10;99.90;;;;;;5012188;28;20030;-77
2022/01/13 07:08:12;;;;;;;1.23;1.17;;;1.10;99.90;;;;;;5011919;28;20026;-77
2022/01/13 07:10:38;;;;;;;2.28;1.35;;;1.10;99.90;;;;;;5011508;28;20428;-77
2022/01/13 07:13:04;;;;;;;2.30;1.35;;;1.10;99.90;;;;;;5011605;28;20048;-73
2022/01/13 07:15:31;;;;;;;0.80;0.80;;;1.00;99.90;;;;;;5011918;28;20421;-77
2022/01/13 07:17:58;;;;;;;0.75;0.75;;;1.00;99.90;;;;;;5011331;28;20018;-74
2022/01/13 07:20:25;;;;;;;0.55;0.55;;;1.00;99.90;;;;;;5008891;28;20063;-76
2022/01/13 07:22:51;;;;;;;0.73;0.73;;;1.00;99.90;;;;;;5009729;28;20033;-76
2022/01/13 07:25:17;;;;;;;2.40;0.35;;;0.90;99.90;;;;;;5013556;28;20033;-73
2022/01/13 07:27:43;;;;;;;2.20;1.52;;;0.90;99.90;;;;;;5012631;28;20044;-74
2022/01/13 07:30:10;;;;;;;0.73;0.73;;;0.90;99.90;;;;;;5009840;28;20058;-76
2022/01/13 07:32:37;;;;;;;0.75;0.75;;;0.80;99.90;;;;;;5013614;28;20026;-74
2022/01/13 07:35:03;;;;;;;2.20;1.02;;;0.80;99.90;;;;;;5014519;28;20021;-76
2022/01/13 07:37:29;;;;;;;1.85;1.05;;;0.80;99.90;;;;;;5013964;28;20096;-73
2022/01/13 07:39:54;;;;;;;1.08;1.00;;;0.80;99.90;;;;;;5012724;28;20473;-74
2022/01/13 07:42:23;;;;;;;0.45;0.45;;;0.80;99.90;;;;;;5013828;28;20026;-76
2022/01/13 07:44:48;;;;;;;1.17;1.13;;;0.90;99.90;;;;;;5013736;28;20026;-76
2022/01/13 07:47:14;;;;;;;1.48;1.38;;;0.90;99.90;;;;;;5013944;28;20547;-76
2022/01/13 07:49:40;;;;;;;3.53;1.90;;;0.80;99.90;;;;;;5013642;28;20030;-77
2022/01/13 07:52:06;;;;;;;0.75;0.75;;;0.80;99.90;;;;;;5013566;28;20026;-73
2022/01/13 07:54:32;;;;;;;3.20;1.35;;;0.90;99.90;;;;;;5012510;28;20092;-77
2022/01/13 07:56:58;;;;;;;3.83;2.22;;;0.80;99.90;;;;;;5006255;28;20036;-77
2022/01/13 07:59:27;;;;;;;1.60;0.95;;;0.90;99.90;;;;;;5011224;28;20068;-76
2022/01/13 08:01:54;;;;;;;1.73;1.63;;;0.90;99.90;;;;;;5006302;28;20051;-76
2022/01/13 08:04:21;;;;;;;1.20;1.17;;;0.90;99.90;;;;;;5013286;28;20034;-73
2022/01/13 08:06:50;;;;;;;1.63;1.55;;;0.90;99.90;;;;;;5013383;28;20053;-73
2022/01/13 08:09:15;;;;;;;2.13;1.92;;;1.00;99.90;;;;;;5015678;28;20030;-76
2022/01/13 08:11:41;;;;;;;5.47;1.00;;;1.00;99.90;;;;;;5013742;28;20446;-76
2022/01/13 08:14:07;;;;;;;0.38;0.38;;;1.00;99.90;;;;;;4995243;28;20031;-76
2022/01/13 08:16:35;;;;;;;0.82;0.82;;;1.00;99.90;;;;;;5003347;28;20109;-73
2022/01/13 08:21:45;;;;;;;1.95;0.65;;;1.10;99.90;;;;;;5011761;28;20053;-76
2022/01/13 08:24:11;;;;;;;0.55;0.55;;;1.10;99.90;;;;;;5010220;28;20469;-76
2022/01/13 08:26:36;;;;;;;0.52;0.52;;;1.20;99.90;;;;;;5011230;28;20032;-76
2022/01/13 08:29:04;;;;;;;0.45;0.45;;;1.20;99.90;;;;;;5011600;28;20034;-76
2022/01/13 08:31:30;;;;;;;1.85;0.52;;;1.30;99.90;;;;;;5012604;28;20133;-73
2022/01/13 08:33:55;;;;;;;0.73;0.73;;;1.30;99.90;;;;;;5010708;28;20097;-75
2022/01/13 08:36:21;;;;;;;0.40;0.40;;;1.30;99.90;;;;;;5010690;28;20088;-76
2022/01/13 08:38:49;;;;;;;5.97;2.22;;;1.40;99.90;;;;;;5011858;28;20029;-77
2022/01/13 08:41:15;;;;;;;1.00;0.98;;;1.40;99.90;;;;;;5012594;28;20114;-78
2022/01/13 08:43:40;;;;;;;2.42;1.52;;;1.40;99.90;;;;;;5010426;28;20117;-73
2022/01/13 08:46:06;;;;;;;1.38;0.73;;;1.40;99.90;;;;;;5012122;28;20084;-77
2022/01/13 08:48:35;;;;;;;2.50;1.20;;;1.50;99.90;;;;;;5012314;28;20034;-77
2022/01/13 08:51:03;;;;;;;8.50;1.40;;;1.50;99.90;;;;;;5011809;28;20495;-78
2022/01/13 08:53:29;;;;;;;3.70;1.65;;;1.60;99.90;;;;;;5011107;28;20022;-77
2022/01/13 08:55:55;;;;;;;0.30;0.30;;;1.70;99.90;;;;;;5009201;28;20434;-75
2022/01/13 08:58:23;;;;;;;2.30;0.43;;;1.70;99.90;;;;;;5005109;28;20073;-74
2022/01/13 09:00:50;;;;;;;1.27;1.17;;;1.80;99.90;;;;;;5023221;28;20071;-78
2022/01/13 09:03:15;;;;;;;0.50;0.50;;;1.90;99.90;;;;;;5030510;28;20079;-77
2022/01/13 09:05:42;;;;;;;7.78;1.27;;;1.90;99.90;;;;;;5012240;28;20104;-77
2022/01/13 09:08:10;;;;;;;0.47;0.47;;;1.90;99.90;;;;;;5011863;28;20041;-74
2022/01/13 09:10:39;;;;;;;1.02;0.80;;;1.90;99.90;;;;;;5012267;28;20021;-74
2022/01/13 09:13:06;;;;;;;1.10;1.05;;;2.00;99.90;;;;;;5012456;28;20014;-77
2022/01/13 09:15:57;;;;;;;0.10;0.10;;;2.00;99.90;;;;;;5012175;28;20484;-77
2022/01/13 09:18:33;;;;;;;0.52;0.52;;;2.10;99.90;;;;;;5011724;28;20033;-77
2022/01/13 09:20:59;;;;;;;1.95;1.33;;;2.20;99.90;;;;;;5006774;28;20374;-74
2022/01/13 09:23:25;;;;;;;1.60;1.50;;;2.20;99.90;;;;;;5011934;28;20144;-73
2022/01/13 09:25:51;;;;;;;0.55;0.55;;;2.30;99.90;;;;;;5011469;28;20124;-78
2022/01/13 09:28:17;;;;;;;0.80;0.80;;;2.30;99.90;;;;;;5012041;28;20040;-78
2022/01/13 09:30:43;;;;;;;2.05;1.70;;;2.30;99.90;;;;;;5010076;28;20054;-78
2022/01/13 09:33:08;;;;;;;1.05;1.00;;;2.40;99.90;;;;;;5011812;28;20025;-74
2022/01/13 09:35:34;;;;;;;10.45;2.05;;;2.50;99.90;;;;;;5017191;28;20021;-73
2022/01/13 09:38:01;;;;;;;2.83;1.27;;;2.60;99.90;;;;;;5023072;28;20088;-78
2022/01/13 09:40:28;;;;;;;0.65;0.65;;;2.60;99.90;;;;;;5023010;28;20029;-78
2022/01/13 09:42:54;;;;;;;2.08;0.70;;;2.70;99.90;;;;;;5012897;28;20033;-80
2022/01/13 09:45:21;;;;;;;1.60;1.50;;;2.80;99.90;;;;;;5011785;28;20366;-79
2022/01/13 09:47:48;;;;;;;4.32;1.40;;;2.80;99.90;;;;;;5010636;28;20038;-73
2022/01/13 09:50:20;;;;;;;0.52;0.52;;;2.90;99.90;;;;;;5012083;28;20400;-82
2022/01/13 09:52:46;;;;;;;1.63;0.82;;;2.90;99.90;;;;;;5011644;28;20469;-75
2022/01/13 09:55:14;;;;;;;4.47;1.60;;;3.00;99.90;;;;;;5010733;28;20049;-82
2022/01/13 09:57:42;;;;;;;1.25;1.15;;;3.00;99.90;;;;;;5000891;28;20097;-81
2022/01/13 10:00:09;;;;;;;1.25;1.20;;;3.10;99.90;;;;;;5014391;28;20080;-74
2022/01/13 10:02:35;;;;;;;0.85;0.63;;;3.20;99.90;;;;;;5024426;28;20036;-73
2022/01/13 10:05:00;;;;;;;1.98;1.10;;;3.30;99.90;;;;;;5021492;28;20021;-82
2022/01/13 10:07:41;;;;;;;0.95;0.95;;;3.30;99.90;;;;;;5010578;28;20068;-78
2022/01/13 10:10:12;;;;;;;3.25;1.35;;;3.40;99.90;;;;;;5011277;28;20504;-84
2022/01/13 10:12:40;;;;;;;0.80;0.80;;;3.50;99.90;;;;;;5026417;28;20560;-73
2022/01/13 10:17:51;;;;;;;1.00;0.98;;;3.60;99.90;;;;;;5009242;28;20533;-74
2022/01/13 10:20:19;;;;;;;4.35;2.15;;;3.70;99.90;;;;;;5010607;28;20048;-84
2022/01/13 10:22:46;;;;;;;0.43;0.43;;;3.70;99.90;;;;;;5010644;28;20025;-83
2022/01/13 10:25:32;;;;;;;3.35;0.98;;;3.80;99.90;;;;;;5010885;28;20507;-83
2022/01/13 10:28:20;;;;;;;0.70;0.70;;;3.90;99.90;;;;;;5010061;28;20044;-73
2022/01/13 10:30:52;;;;;;;4.10;2.38;;;4.00;99.90;;;;;;5010643;28;20042;-73
2022/01/13 10:33:26;;;;;;;1.42;0.63;;;4.10;99.90;;;;;;5012373;28;20034;-73
2022/01/13 10:35:56;;;;;;;1.92;1.42;;;4.10;99.90;;;;;;5034592;28;20523;-83
2022/01/13 10:38:22;;;;;;;0.15;0.15;;;4.20;99.90;;;;;;5009723;28;20026;-84
2022/01/13 10:40:50;;;;;;;0.32;0.32;;;4.20;99.90;;;;;;5010691;28;20515;-73
2022/01/13 10:43:21;;;;;;;3.45;1.42;;;4.30;99.90;;;;;;5010238;28;20053;-84
2022/01/13 10:45:52;;;;;;;0.73;0.73;;;4.40;99.90;;;;;;5009986;28;20033;-78
2022/01/13 10:48:28;;;;;;;0.60;0.60;;;4.50;99.90;;;;;;5010829;28;20508;-84
2022/01/13 10:51:04;;;;;;;4.57;1.25;;;4.60;99.90;;;;;;5010785;28;20444;-73
2022/01/13 10:53:35;;;;;;;2.30;2.10;;;4.60;99.90;;;;;;5010128;28;20026;-82
2022/01/13 10:56:10;;;;;;;0.68;0.68;;;4.80;99.90;;;;;;5009738;28;20053;-84
2022/01/13 10:58:39;;;;;;;1.88;1.77;;;4.80;99.90;;;;;;5010901;28;20057;-75
2022/01/13 11:01:06;;;;;;;4.10;1.58;;;5.00;99.90;;;;;;5016071;28;20041;-82
2022/01/13 11:03:39;;;;;;;0.63;0.63;;;5.10;99.90;;;;;;5015676;28;20026;-81
2022/01/13 11:06:08;;;;;;;1.15;1.10;;;5.20;99.90;;;;;;5014468;28;20029;-75
2022/01/13 11:08:41;;;;;;;0.63;0.63;;;5.30;99.90;;;;;;5018252;28;20063;-74
2022/01/13 11:11:20;;;;;;;3.70;0.45;;;5.40;99.90;;;;;;5015283;28;20037;-85
2022/01/13 11:13:55;;;;;;;1.75;1.65;;;5.40;99.90;;;;;;5022375;28;20017;-86
2022/01/13 11:16:22;;;;;;;0.60;0.57;;;5.60;99.90;;;;;;5014036;28;20044;-86
2022/01/13 11:18:48;;;;;;;0.50;0.50;;;5.70;99.90;;;;;;5013657;28;20029;-73
2022/01/13 11:21:14;;;;;;;0.32;0.22;;;5.80;99.90;;;;;;5021883;28;20401;-74
2022/01/13 11:23:44;;;;;;;0.10;0.10;;;5.90;99.90;;;;;;5031852;28;20025;-84
2022/01/13 11:26:12;;;;;;;0.65;0.55;;;6.00;99.90;;;;;;5016909;28;20032;-85
2022/01/13 11:28:40;;;;;;;0.93;0.82;;;6.00;99.90;;;;;;5029134;28;20041;-86
2022/01/13 11:31:09;;;;;;;0.20;0.10;;;6.10;99.90;;;;;;5022109;28;20045;-83
2022/01/13 11:33:36;;;;;;;3.45;2.28;;;6.20;99.90;;;;;;5016260;28;20181;-75
2022/01/13 11:36:03;;;;;;;0.32;0.32;;;6.30;99.90;;;;;;5013486;28;20068;-85
2022/01/13 11:38:30;;;;;;;0.35;0.35;;;6.40;99.90;;;;;;5014231;28;20026;-86
2022/01/13 11:41:03;;;;;;;0.55;0.55;;;6.40;99.90;;;;;;5014358;28;20408;-85
2022/01/13 11:43:31;;;;;;;;;;;6.50;99.90;;;;;;5014096;28;20068;-85
2022/01/13 11:46:12;;;;;;;0.57;0.57;;;6.60;99.90;;;;;;5013172;28;20316;-74
2022/01/13 11:48:42;;;;;;;2.40;0.98;;;6.90;99.90;;;;;;5012005;28;20124;-74
2022/01/13 11:51:16;;;;;;;1.23;0.85;;;6.90;99.90;;;;;;5013157;28;20026;-85
2022/01/13 11:54:00;;;;;;;0.70;0.60;;;7.10;99.90;;;;;;5021476;28;20090;-84
2022/01/13 11:56:27;;;;;;;0.57;0.57;;;7.10;99.90;;;;;;5012803;28;20026;-83
2022/01/13 11:58:54;;;;;;;0.25;0.25;;;7.20;99.90;;;;;;5016948;28;20033;-74
2022/01/13 12:01:20;;;;;;;0.17;0.17;;;7.20;99.90;;;;;;5032901;28;20052;-85
2022/01/13 12:03:56;;;;;;;1.33;0.95;;;7.30;99.90;;;;;;5012231;28;20026;-85
2022/01/13 12:06:46;;;;;;;1.20;0.93;;;7.60;99.90;;;;;;5011104;28;20030;-84
2022/01/13 12:09:32;;;;;;;3.63;0.63;;;7.60;99.90;;;;;;5016771;28;20010;-76
2022/01/13 12:11:59;;;;;;;1.25;0.57;;;7.70;99.90;;;;;;5015974;28;20052;-74
2022/01/13 12:14:24;;;;;;;1.48;1.38;;;7.70;99.90;;;;;;5013506;28;20018;-81
2022/01/13 12:16:55;;;;;;;2.53;1.05;;;7.80;99.90;;;;;;5015118;28;20030;-85
2022/01/13 12:19:41;;;;;;;0.10;0.10;;;7.90;99.90;;;;;;5022235;28;20026;-85
2022/01/13 12:22:19;;;;;;;1.55;1.45;;;8.00;99.90;;;;;;5012989;28;20054;-86
2022/01/13 12:24:53;;;;;;;1.25;1.23;;;8.10;99.90;;;;;;5012364;28;20017;-74
2022/01/13 12:27:46;;;;;;;2.45;0.68;;;8.20;99.90;;;;;;5017847;28;20038;-85
2022/01/13 12:30:27;;;;;;;1.05;1.02;;;8.30;99.90;;;;;;5020477;28;20657;-85
2022/01/13 12:32:57;;;;;;;1.35;0.90;;;8.40;99.90;;;;;;5019249;28;20053;-86
2022/01/13 12:35:49;;;;;;;0.65;0.65;;;8.40;99.90;;;;;;5019189;28;20596;-85
2022/01/13 12:38:18;;;;;;;0.20;0.20;;;8.50;99.90;;;;;;5018606;28;20030;-74
2022/01/13 12:41:00;;;;;;;0.20;0.20;;;8.50;99.90;;;;;;5016714;28;20014;-78
2022/01/13 12:43:48;;;;;;;0.30;0.30;;;8.70;99.90;;;;;;5011431;28;20014;-76
2022/01/13 12:46:16;;;;;;;3.03;0.65;;;8.70;99.90;;;;;;5007114;28;20068;-77
2022/01/13 12:48:44;;;;;;;0.30;0.30;;;8.80;99.90;;;;;;5011964;28;20127;-78
2022/01/13 12:51:15;;;;;;;0.75;0.75;;;8.70;99.90;;;;;;5010248;28;20053;-74
2022/01/13 12:53:40;;;;;;;1.98;1.20;;;8.70;99.90;;;;;;5011483;28;20022;-79
2022/01/13 12:56:14;;;;;;;0.52;0.47;;;8.80;99.90;;;;;;5012163;28;20025;-78
2022/01/13 12:58:51;;;;;;;0.77;0.77;;;8.90;99.90;;;;;;5012288;28;20404;-78
2022/01/13 13:01:22;;;;;;;0.10;0.10;;;9.00;99.90;;;;;;5012038;28;20026;-77
2022/01/13 13:04:10;;;;;;;0.25;0.20;;;9.10;99.90;;;;;;5011761;28;20037;-76
2022/01/13 13:06:43;;;;;;;0.60;0.60;;;9.30;99.90;;;;;;5012149;28;20021;-78
2022/01/13 13:09:19;;;;;;;1.38;0.40;;;9.30;99.90;;;;;;5012423;28;20022;-77
2022/01/13 13:11:58;;;;;;;2.83;2.40;;;9.50;99.90;;;;;;5011100;28;20022;-77
2022/01/13 13:17:45;;;;;;;0.43;0.43;;;9.80;99.90;;;;;;5031666;28;20056;-76
2022/01/13 13:20:32;;;;;;;1.80;0.55;;;9.70;99.90;;;;;;5015425;28;20417;-77
2022/01/13 13:23:00;;;;;;;0.32;0.32;;;9.80;99.90;;;;;;5010373;28;20021;-78
2022/01/13 13:25:39;;;;;;;0.25;0.25;;;9.80;99.90;;;;;;5011661;28;20103;-77
2022/01/13 13:28:31;;;;;;;2.60;1.20;;;9.80;99.90;;;;;;5010944;28;20037;-74
2022/01/13 13:31:02;;;;;;;0.60;0.57;;;9.90;99.90;;;;;;5010353;28;20046;-75